Time;durP1;ratioP1;P1;durP2;ratioP2;P2;SDS_P1;SDS_P2;PMS_P1;PMS_P2;Temp;Humidity;BMP_temperature;BMP_pressure;BME280_temperature;BME280_humidity;BME280_pressure;Samples;Min_cycle;Max_cycle;Signal;HPM_P1;HPM_P2
2022/02/25 00:02:25;;;;;;;9.52;5.82;;;-0.70;87.90;;;;;;5016186;28;20022;-78
2022/02/25 00:04:51;;;;;;;7.40;4.53;;;-0.70;88.00;;;;;;5008494;28;20445;-80
2022/02/25 00:07:17;;;;;;;6.97;4.43;;;-0.70;88.30;;;;;;5016044;28;20021;-79
2022/02/25 00:09:43;;;;;;;10.88;4.55;;;-0.70;88.40;;;;;;5016114;28;20395;-78
2022/02/25 00:12:09;;;;;;;7.10;4.80;;;-0.60;88.50;;;;;;4998370;28;20034;-79
2022/02/25 00:14:35;;;;;;;7.07;4.63;;;-0.70;88.50;;;;;;5016154;28;20026;-79
2022/02/25 00:17:00;;;;;;;5.95;4.68;;;-0.70;88.50;;;;;;4998263;28;20050;-79
2022/02/25 00:19:26;;;;;;;9.27;5.45;;;-0.70;88.60;;;;;;5016715;28;20045;-78
2022/02/25 00:21:52;;;;;;;7.18;5.00;;;-0.70;88.70;;;;;;5016779;28;20026;-78
2022/02/25 00:24:18;;;;;;;7.72;5.13;;;-0.70;88.70;;;;;;5016063;28;20026;-78
2022/02/25 00:26:44;;;;;;;6.68;5.15;;;-0.70;88.80;;;;;;5016135;28;20112;-79
2022/02/25 00:29:10;;;;;;;7.90;5.10;;;-0.70;88.90;;;;;;5015975;28;20129;-80
2022/02/25 00:31:36;;;;;;;14.07;5.88;;;-0.70;89.00;;;;;;5015817;28;20096;-79
2022/02/25 00:34:02;;;;;;;9.23;5.45;;;-0.80;89.20;;;;;;5011515;28;20030;-80
2022/02/25 00:36:28;;;;;;;8.23;6.45;;;-0.80;89.40;;;;;;5013494;28;20391;-78
2022/02/25 00:38:54;;;;;;;9.65;5.75;;;-0.80;89.50;;;;;;5015480;28;20030;-79
2022/02/25 00:41:20;;;;;;;13.18;6.65;;;-0.80;89.60;;;;;;4997597;28;20498;-77
2022/02/25 00:43:45;;;;;;;9.40;6.00;;;-0.80;89.60;;;;;;4974012;28;20027;-80
2022/02/25 00:46:11;;;;;;;11.45;6.82;;;-0.90;89.80;;;;;;4974046;28;20038;-79
2022/02/25 00:48:37;;;;;;;13.23;6.18;;;-0.90;90.00;;;;;;4973795;28;20038;-78
2022/02/25 00:51:03;;;;;;;11.18;6.07;;;-0.90;90.00;;;;;;4964981;28;20062;-79
2022/02/25 00:53:29;;;;;;;11.40;7.15;;;-0.90;90.00;;;;;;4954627;29;20051;-79
2022/02/25 00:55:55;;;;;;;10.27;5.72;;;-0.90;90.10;;;;;;4954506;29;20027;-78
2022/02/25 00:58:21;;;;;;;10.80;6.38;;;-1.00;90.10;;;;;;4964548;28;20479;-79
2022/02/25 01:00:47;;;;;;;11.50;5.82;;;-1.00;90.20;;;;;;4972981;28;20038;-78
2022/02/25 01:03:13;;;;;;;15.13;6.80;;;-1.00;90.20;;;;;;4974098;28;20082;-79
2022/02/25 01:05:39;;;;;;;11.02;6.28;;;-1.00;90.30;;;;;;4974182;28;20031;-79
2022/02/25 01:08:06;;;;;;;11.88;5.80;;;-1.00;90.30;;;;;;4979195;28;20049;-77
2022/02/25 01:10:34;;;;;;;9.43;6.15;;;-1.00;90.40;;;;;;4976153;28;20073;-75
2022/02/25 01:13:00;;;;;;;9.55;5.70;;;-1.00;90.40;;;;;;4984294;28;20031;-79
2022/02/25 01:15:26;;;;;;;9.60;5.18;;;-1.00;90.50;;;;;;4986620;28;20062;-79
2022/02/25 01:17:52;;;;;;;8.48;5.25;;;-1.10;90.50;;;;;;4996285;28;20033;-79
2022/02/25 01:20:18;;;;;;;9.20;5.22;;;-1.10;90.60;;;;;;4990163;28;20491;-78
2022/02/25 01:22:45;;;;;;;8.23;3.90;;;-1.10;90.60;;;;;;5015952;28;20112;-79
2022/02/25 01:25:11;;;;;;;8.17;3.70;;;-1.10;90.70;;;;;;5014911;28;20113;-79
2022/02/25 01:27:37;;;;;;;6.05;3.25;;;-1.10;90.80;;;;;;5014573;28;20030;-79
2022/02/25 01:30:05;;;;;;;8.07;4.28;;;-1.20;90.80;;;;;;4996837;28;20037;-79
2022/02/25 01:32:31;;;;;;;8.73;4.82;;;-1.20;90.90;;;;;;5014670;28;20387;-80
2022/02/25 01:34:57;;;;;;;11.70;5.35;;;-1.20;91.00;;;;;;5015164;28;20041;-78
2022/02/25 01:37:24;;;;;;;9.23;4.93;;;-1.30;91.10;;;;;;5015483;28;20049;-77
2022/02/25 01:39:50;;;;;;;10.60;5.13;;;-1.20;91.20;;;;;;4997956;28;20041;-79
2022/02/25 01:42:16;;;;;;;9.23;6.13;;;-1.30;91.20;;;;;;4999778;28;20271;-78
2022/02/25 01:44:43;;;;;;;5.53;4.18;;;-1.30;91.30;;;;;;4997357;28;20049;-79
2022/02/25 01:47:11;;;;;;;11.43;4.65;;;-1.30;91.30;;;;;;4996253;28;20030;-79
2022/02/25 01:49:37;;;;;;;9.55;4.75;;;-1.30;91.40;;;;;;5014203;28;20119;-79
2022/02/25 01:52:11;;;;;;;6.57;4.07;;;-1.40;91.40;;;;;;5014783;28;20030;-79
2022/02/25 01:54:37;;;;;;;7.90;4.70;;;-1.40;91.40;;;;;;5014255;28;20022;-78
2022/02/25 01:57:04;;;;;;;6.25;4.53;;;-1.40;91.60;;;;;;5015864;28;20017;-77
2022/02/25 01:59:31;;;;;;;13.65;5.35;;;-1.40;91.60;;;;;;5017142;28;20022;-78
2022/02/25 02:01:58;;;;;;;9.75;5.38;;;-1.40;91.60;;;;;;5019239;28;20038;-78
2022/02/25 02:04:24;;;;;;;10.52;5.10;;;-1.40;91.80;;;;;;5014484;28;20438;-79
2022/02/25 02:06:51;;;;;;;5.90;3.50;;;-1.50;91.80;;;;;;4996732;28;20060;-80
2022/02/25 02:09:17;;;;;;;8.25;4.25;;;-1.50;91.80;;;;;;5015104;28;20022;-78
2022/02/25 02:11:46;;;;;;;8.95;4.60;;;-1.50;91.90;;;;;;5016269;28;20383;-80
2022/02/25 02:14:17;;;;;;;9.05;5.70;;;-1.50;92.00;;;;;;5031644;28;20018;-80
2022/02/25 02:16:47;;;;;;;7.78;4.82;;;-1.50;92.30;;;;;;5035084;28;20018;-79
2022/02/25 02:19:13;;;;;;;15.07;5.20;;;-1.50;92.10;;;;;;5016691;28;20018;-80
2022/02/25 02:21:48;;;;;;;11.32;5.38;;;-1.50;92.20;;;;;;5014454;28;20030;-79
2022/02/25 02:24:15;;;;;;;6.95;4.57;;;-1.50;92.20;;;;;;5008292;28;20029;-80
2022/02/25 02:26:41;;;;;;;7.80;4.53;;;-1.50;92.30;;;;;;5013536;28;20049;-79
2022/02/25 02:29:08;;;;;;;10.45;6.32;;;-1.50;92.40;;;;;;5015133;28;20030;-80
2022/02/25 02:31:35;;;;;;;4.85;3.75;;;-1.50;92.40;;;;;;5014405;28;20026;-79
2022/02/25 02:34:02;;;;;;;13.30;4.88;;;-1.50;92.50;;;;;;5014111;28;20026;-81
2022/02/25 02:36:28;;;;;;;7.30;4.55;;;-1.50;92.60;;;;;;5013299;28;20046;-81
2022/02/25 02:38:54;;;;;;;10.88;5.10;;;-1.50;92.70;;;;;;5014179;28;20068;-80
2022/02/25 02:41:20;;;;;;;11.80;5.80;;;-1.50;92.70;;;;;;5014966;28;20506;-81
2022/02/25 02:43:46;;;;;;;5.35;3.67;;;-1.50;92.70;;;;;;5017700;28;20025;-79
2022/02/25 02:46:12;;;;;;;11.55;5.25;;;-1.60;92.90;;;;;;4997743;28;20026;-78
2022/02/25 02:48:38;;;;;;;8.65;5.63;;;-1.60;92.90;;;;;;4994110;28;20058;-79
2022/02/25 02:51:04;;;;;;;9.43;4.78;;;-1.60;92.90;;;;;;4994145;28;20046;-80
2022/02/25 02:53:30;;;;;;;14.80;6.63;;;-1.60;93.00;;;;;;4994497;28;20031;-79
2022/02/25 02:55:56;;;;;;;10.68;6.38;;;-1.60;93.00;;;;;;4994396;28;20356;-78
2022/02/25 02:58:21;;;;;;;11.45;5.93;;;-1.60;93.20;;;;;;5003576;28;20108;-80
2022/02/25 03:00:49;;;;;;;9.73;7.13;;;-1.60;93.20;;;;;;4995362;28;20042;-78
2022/02/25 03:03:15;;;;;;;;;;;-1.60;93.30;;;;;;5014991;28;20022;-79
2022/02/25 03:05:41;;;;;;;13.52;7.40;;;-1.60;93.20;;;;;;5027339;28;19912;-79
2022/02/25 03:08:08;;;;;;;9.98;5.32;;;-1.70;93.30;;;;;;5015523;28;20379;-79
2022/02/25 03:10:34;;;;;;;11.85;8.32;;;-1.70;93.30;;;;;;5013177;28;20034;-78
2022/02/25 03:13:01;;;;;;;11.73;7.40;;;-1.70;93.50;;;;;;5012611;28;20018;-80
2022/02/25 03:15:27;;;;;;;13.93;9.20;;;-1.70;93.50;;;;;;5012988;28;20350;-79
2022/02/25 03:17:53;;;;;;;14.82;8.43;;;-1.70;93.60;;;;;;5012731;28;20116;-79
2022/02/25 03:20:19;;;;;;;12.00;6.53;;;-1.70;93.70;;;;;;5012742;28;20038;-79
2022/02/25 03:22:45;;;;;;;15.65;7.32;;;-1.70;93.70;;;;;;5012816;28;20018;-79
2022/02/25 03:25:13;;;;;;;15.40;7.90;;;-1.70;93.80;;;;;;5011837;28;20379;-79
2022/02/25 03:27:40;;;;;;;16.45;7.68;;;-1.80;93.80;;;;;;5012709;28;20376;-78
2022/02/25 03:30:07;;;;;;;17.52;8.10;;;-1.70;93.90;;;;;;5012535;28;20434;-80
2022/02/25 03:32:33;;;;;;;14.52;8.35;;;-1.80;94.00;;;;;;5012933;28;20040;-79
2022/02/25 03:34:59;;;;;;;15.00;8.43;;;-1.80;94.00;;;;;;5021826;28;20057;-77
2022/02/25 03:37:27;;;;;;;15.32;8.40;;;-1.80;94.00;;;;;;5031522;28;20188;-77
2022/02/25 03:39:53;;;;;;;14.20;9.07;;;-1.80;94.30;;;;;;5027035;28;20073;-77
2022/02/25 03:42:20;;;;;;;14.13;8.35;;;-1.70;94.40;;;;;;5021394;28;20034;-79
2022/02/25 03:44:46;;;;;;;13.65;8.95;;;-1.80;94.60;;;;;;5006261;28;20029;-77
2022/02/25 03:47:13;;;;;;;13.97;8.77;;;-1.80;94.50;;;;;;5021083;28;20006;-79
2022/02/25 03:49:39;;;;;;;16.98;8.32;;;-1.80;94.60;;;;;;5037006;28;20045;-78
2022/02/25 03:52:06;;;;;;;17.13;8.43;;;-1.80;94.70;;;;;;5034773;28;20034;-79
2022/02/25 03:54:32;;;;;;;21.47;9.03;;;-1.80;94.80;;;;;;5037246;28;20073;-76
2022/02/25 03:56:58;;;;;;;17.70;9.52;;;-1.90;94.80;;;;;;5030717;28;20072;-78
2022/02/25 03:59:24;;;;;;;15.63;8.05;;;-1.90;94.80;;;;;;5015757;28;20026;-78
2022/02/25 04:01:52;;;;;;;20.50;11.73;;;-1.90;95.10;;;;;;5014807;28;20542;-78
2022/02/25 04:04:26;;;;;;;17.85;10.65;;;-1.90;94.90;;;;;;5022189;28;20030;-78
2022/02/25 04:06:52;;;;;;;22.73;10.98;;;-1.90;95.00;;;;;;5025773;28;20014;-76
2022/02/25 04:09:19;;;;;;;15.88;9.38;;;-1.90;95.00;;;;;;5034485;28;20048;-77
2022/02/25 04:11:52;;;;;;;18.75;11.50;;;-1.90;95.00;;;;;;5003534;28;20030;-79
2022/02/25 04:14:19;;;;;;;17.77;9.93;;;-1.90;95.10;;;;;;5033743;28;20018;-77
2022/02/25 04:16:51;;;;;;;11.98;7.20;;;-1.90;95.20;;;;;;5015148;28;20047;-80
2022/02/25 04:19:18;;;;;;;16.05;9.65;;;-1.90;95.20;;;;;;5023193;28;20026;-78
2022/02/25 04:21:45;;;;;;;23.98;11.23;;;-1.90;95.30;;;;;;5016674;28;20041;-78
2022/02/25 04:24:12;;;;;;;18.02;9.18;;;-1.90;95.40;;;;;;5012245;28;20415;-80
2022/02/25 04:26:38;;;;;;;18.98;10.73;;;-1.90;95.50;;;;;;4994780;28;20026;-79
2022/02/25 04:29:04;;;;;;;18.08;9.25;;;-1.90;95.50;;;;;;5012526;28;20053;-79
2022/02/25 04:31:30;;;;;;;21.85;10.45;;;-1.90;95.60;;;;;;5012267;28;20101;-79
2022/02/25 04:33:56;;;;;;;13.23;10.40;;;-1.90;95.80;;;;;;5012075;28;20022;-79
2022/02/25 04:36:22;;;;;;;17.95;9.27;;;-1.90;95.70;;;;;;5013492;28;20125;-78
2022/02/25 04:38:49;;;;;;;17.02;10.35;;;-1.90;95.80;;;;;;5015092;28;20471;-80
2022/02/25 04:41:15;;;;;;;20.17;11.60;;;-1.90;95.80;;;;;;5015600;28;20036;-78
2022/02/25 04:43:41;;;;;;;19.40;9.93;;;-1.90;95.80;;;;;;5015787;28;20049;-79
2022/02/25 04:46:13;;;;;;;16.92;10.85;;;-1.90;95.90;;;;;;5015352;28;20038;-79
2022/02/25 04:48:40;;;;;;;24.60;12.77;;;-1.80;96.00;;;;;;5016173;28;20030;-79
2022/02/25 04:51:06;;;;;;;22.17;12.45;;;-1.80;96.00;;;;;;5016605;28;20029;-79
2022/02/25 04:53:32;;;;;;;19.38;10.88;;;-1.80;96.00;;;;;;5021626;28;20048;-79
2022/02/25 04:55:58;;;;;;;21.25;11.73;;;-1.80;96.10;;;;;;5016394;28;20378;-79
2022/02/25 04:58:24;;;;;;;18.92;10.75;;;-1.80;96.10;;;;;;5015396;28;20026;-80
2022/02/25 05:00:50;;;;;;;14.75;10.18;;;-1.80;96.20;;;;;;5015300;28;20517;-79
2022/02/25 05:03:17;;;;;;;22.00;10.52;;;-1.80;96.20;;;;;;5018936;28;20029;-79
2022/02/25 05:05:43;;;;;;;20.55;11.10;;;-1.80;96.30;;;;;;5018537;28;20144;-80
2022/02/25 05:08:09;;;;;;;19.02;10.38;;;-1.80;96.30;;;;;;5014337;28;20038;-78
2022/02/25 05:10:34;;;;;;;20.05;11.70;;;-1.80;96.20;;;;;;5016560;28;20101;-79
2022/02/25 05:13:00;;;;;;;22.55;10.70;;;-1.80;96.30;;;;;;5014526;28;20057;-80
2022/02/25 05:20:54;;;;;;;21.83;11.63;;;-1.70;96.50;;;;;;5039223;28;20125;-79
2022/02/25 05:23:20;;;;;;;24.23;13.63;;;-1.70;96.40;;;;;;5038577;28;20022;-78
2022/02/25 05:25:46;;;;;;;16.42;12.38;;;-1.70;96.40;;;;;;5017602;28;20483;-77
2022/02/25 05:28:12;;;;;;;27.52;15.00;;;-1.60;96.50;;;;;;5002729;28;20027;-80
2022/02/25 05:30:40;;;;;;;20.20;14.55;;;-1.60;96.50;;;;;;5009858;28;20041;-77
2022/02/25 05:33:07;;;;;;;;;;;-1.60;96.50;;;;;;5001561;28;20042;-79
2022/02/25 05:35:33;;;;;;;25.92;13.60;;;-1.50;96.50;;;;;;5007742;28;19910;-78
2022/02/25 05:37:59;;;;;;;26.58;14.13;;;-1.50;96.40;;;;;;5010973;28;20528;-78
2022/02/25 05:40:25;;;;;;;30.75;15.70;;;-1.50;96.40;;;;;;4999195;28;20042;-79
2022/02/25 05:42:52;;;;;;;28.95;16.20;;;-1.50;96.40;;;;;;5018679;28;20049;-77
2022/02/25 05:45:18;;;;;;;32.67;15.63;;;-1.40;96.50;;;;;;5025235;28;20052;-80
2022/02/25 05:47:45;;;;;;;24.85;15.57;;;-1.40;96.40;;;;;;5004076;28;20026;-79
2022/02/25 05:50:15;;;;;;;30.73;17.88;;;-1.30;96.30;;;;;;4981678;28;20033;-77
2022/02/25 05:52:42;;;;;;;31.30;17.70;;;-1.30;96.30;;;;;;4996322;28;20514;-77
2022/02/25 05:55:09;;;;;;;32.65;16.67;;;-1.20;96.20;;;;;;4997131;28;20027;-78
2022/02/25 05:57:35;;;;;;;33.30;12.43;;;-1.20;96.20;;;;;;4999832;28;20079;-78
2022/02/25 06:00:03;;;;;;;26.63;14.43;;;-1.10;96.10;;;;;;5016156;28;20437;-77
2022/02/25 06:02:28;;;;;;;25.13;13.88;;;-1.00;96.10;;;;;;5015625;28;20033;-77
2022/02/25 06:04:54;;;;;;;35.35;16.98;;;-1.00;96.00;;;;;;5016251;28;20034;-80
2022/02/25 06:07:20;;;;;;;24.30;14.05;;;-1.00;95.90;;;;;;5016444;28;20044;-78
2022/02/25 06:09:46;;;;;;;24.63;11.35;;;-0.90;95.90;;;;;;4998283;28;20026;-77
2022/02/25 06:12:12;;;;;;;18.33;12.02;;;-0.90;95.90;;;;;;5002848;28;20537;-80
2022/02/25 06:14:37;;;;;;;22.45;13.25;;;-0.80;95.80;;;;;;5003791;28;20088;-81
2022/02/25 06:17:04;;;;;;;22.30;14.18;;;-0.70;95.80;;;;;;5016640;28;20048;-78
2022/02/25 06:19:29;;;;;;;26.60;14.38;;;-0.60;95.70;;;;;;5015674;28;20029;-81
2022/02/25 06:21:55;;;;;;;22.90;10.90;;;-0.60;95.60;;;;;;5015041;28;20502;-80
2022/02/25 06:24:21;;;;;;;24.40;14.05;;;-0.50;95.50;;;;;;4997751;28;20108;-81
2022/02/25 06:26:47;;;;;;;21.08;12.02;;;-0.50;95.50;;;;;;5015924;28;20494;-81
2022/02/25 06:29:12;;;;;;;21.73;13.40;;;-0.50;95.50;;;;;;5014646;28;20029;-81
2022/02/25 06:31:38;;;;;;;22.67;11.20;;;-0.40;95.40;;;;;;4997653;28;20107;-79
2022/02/25 06:34:04;;;;;;;19.80;11.18;;;-0.30;95.30;;;;;;5014063;28;20025;-80
2022/02/25 06:36:30;;;;;;;26.15;14.10;;;-0.30;95.20;;;;;;5014987;28;20056;-80
2022/02/25 06:38:56;;;;;;;19.27;11.77;;;-0.20;95.20;;;;;;4993848;28;20026;-78
2022/02/25 06:41:23;;;;;;;20.48;11.50;;;-0.10;95.20;;;;;;5003875;28;20102;-78
2022/02/25 06:43:49;;;;;;;20.25;12.82;;;-0.10;95.00;;;;;;5007120;28;20026;-78
2022/02/25 06:46:15;;;;;;;25.75;13.75;;;0.00;95.00;;;;;;4999411;28;20026;-81
2022/02/25 06:48:42;;;;;;;23.45;13.48;;;0.10;95.00;;;;;;5013200;28;20017;-78
2022/02/25 06:51:08;;;;;;;22.95;13.88;;;0.20;94.80;;;;;;5016840;28;20072;-79
2022/02/25 06:53:36;;;;;;;37.08;18.85;;;0.20;94.70;;;;;;5016052;28;20030;-81
2022/02/25 06:56:02;;;;;;;24.92;12.90;;;0.30;94.70;;;;;;5017329;28;20014;-80
2022/02/25 06:58:28;;;;;;;22.50;13.47;;;0.40;94.70;;;;;;5014662;28;20724;-80
2022/02/25 07:00:54;;;;;;;23.65;13.80;;;0.50;94.70;;;;;;5015725;28;20107;-80
2022/02/25 07:03:20;;;;;;;15.93;9.07;;;0.60;94.60;;;;;;5010478;28;20065;-79
2022/02/25 07:05:46;;;;;;;32.67;16.63;;;0.70;94.40;;;;;;5015786;28;20036;-82
2022/02/25 07:08:13;;;;;;;19.20;12.00;;;0.70;94.30;;;;;;4997511;28;20050;-83
2022/02/25 07:10:40;;;;;;;22.35;14.15;;;0.80;94.20;;;;;;4999999;28;20038;-80
2022/02/25 07:13:07;;;;;;;27.45;12.93;;;0.90;94.10;;;;;;5015645;28;20022;-81
2022/02/25 07:15:33;;;;;;;;;;;0.90;94.10;;;;;;5007764;28;20038;-80
2022/02/25 07:18:00;;;;;;;17.85;11.10;;;1.00;94.10;;;;;;4995820;28;19936;-81
2022/02/25 07:20:26;;;;;;;30.23;17.83;;;1.00;93.80;;;;;;5014699;28;20037;-79
2022/02/25 07:22:53;;;;;;;21.73;11.63;;;1.10;93.90;;;;;;5012546;28;20033;-85
2022/02/25 07:25:19;;;;;;;19.80;11.10;;;1.20;93.70;;;;;;5008768;28;20279;-79
2022/02/25 07:27:46;;;;;;;23.52;13.80;;;1.30;93.50;;;;;;5012351;28;20022;-82
2022/02/25 07:30:13;;;;;;;18.77;10.60;;;1.30;93.40;;;;;;5010633;28;20029;-79
2022/02/25 07:32:39;;;;;;;19.27;12.63;;;1.40;93.40;;;;;;5012868;28;20041;-77
2022/02/25 07:35:07;;;;;;;16.52;11.38;;;1.50;93.30;;;;;;5013548;28;20082;-78
2022/02/25 07:37:33;;;;;;;18.15;11.27;;;1.60;93.00;;;;;;5013175;28;20034;-78
2022/02/25 07:39:59;;;;;;;19.58;10.23;;;1.60;93.00;;;;;;4993129;28;20948;-80
2022/02/25 07:42:25;;;;;;;20.45;12.32;;;1.70;92.80;;;;;;4993322;28;20026;-77
2022/02/25 07:44:51;;;;;;;18.95;10.73;;;1.70;92.80;;;;;;5002731;28;20026;-77
2022/02/25 07:47:19;;;;;;;19.65;12.48;;;1.80;92.80;;;;;;5013594;28;20116;-76
2022/02/25 07:49:46;;;;;;;20.67;13.48;;;1.90;92.40;;;;;;5012376;28;20030;-80
2022/02/25 07:52:13;;;;;;;21.70;12.90;;;2.00;92.40;;;;;;5011785;28;20058;-80
2022/02/25 07:54:38;;;;;;;20.90;12.27;;;2.10;92.30;;;;;;5012572;28;20422;-77
2022/02/25 07:57:04;;;;;;;22.08;14.00;;;2.20;92.20;;;;;;5013489;28;20029;-78
2022/02/25 07:59:31;;;;;;;18.08;10.30;;;2.30;91.80;;;;;;5010514;28;20041;-78
2022/02/25 08:01:56;;;;;;;18.20;11.38;;;2.30;91.40;;;;;;4999423;28;20064;-80
2022/02/25 08:04:22;;;;;;;18.95;10.65;;;2.40;91.50;;;;;;5016648;28;20030;-78
2022/02/25 08:06:48;;;;;;;18.52;10.90;;;2.50;91.30;;;;;;5011894;28;20025;-78
2022/02/25 08:09:14;;;;;;;17.30;9.63;;;2.60;90.90;;;;;;5012848;28;20056;-79
2022/02/25 08:11:40;;;;;;;15.90;9.75;;;2.60;90.40;;;;;;5015683;28;20037;-76
2022/02/25 08:14:06;;;;;;;15.35;10.70;;;2.70;90.00;;;;;;5016987;28;20021;-79
2022/02/25 08:16:32;;;;;;;20.70;9.52;;;2.70;89.90;;;;;;5016503;28;20022;-79
2022/02/25 08:18:58;;;;;;;11.25;7.57;;;2.80;88.50;;;;;;5017838;28;20081;-79
2022/02/25 08:21:24;;;;;;;13.88;8.60;;;2.80;87.30;;;;;;5018487;28;20041;-77
2022/02/25 08:23:49;;;;;;;15.95;8.93;;;3.00;87.50;;;;;;5017689;28;20021;-79
2022/02/25 08:26:15;;;;;;;11.73;9.27;;;3.90;88.00;;;;;;5017278;28;20398;-78
2022/02/25 08:28:41;;;;;;;12.63;8.68;;;5.40;83.90;;;;;;5017098;28;20026;-79
2022/02/25 08:31:11;;;;;;;20.40;8.52;;;6.50;75.70;;;;;;5026220;28;20045;-79
2022/02/25 08:33:38;;;;;;;11.65;8.38;;;7.30;73.10;;;;;;5027484;28;20064;-81
2022/02/25 08:36:04;;;;;;;;;;;8.00;68.80;;;;;;5000969;28;20092;-79
2022/02/25 08:38:30;;;;;;;16.73;10.25;;;8.70;69.60;;;;;;5016795;28;19906;-80
2022/02/25 08:40:56;;;;;;;19.77;9.88;;;9.60;66.20;;;;;;5018449;28;20407;-82
2022/02/25 08:43:23;;;;;;;11.95;9.20;;;10.80;62.70;;;;;;5020337;28;20026;-82
2022/02/25 08:45:50;;;;;;;14.23;10.35;;;11.40;58.40;;;;;;5018100;28;20040;-79
2022/02/25 08:48:16;;;;;;;14.50;10.00;;;11.50;57.20;;;;;;5018651;28;20030;-80
2022/02/25 08:50:43;;;;;;;11.20;8.40;;;12.10;54.50;;;;;;5018370;28;20097;-79
2022/02/25 08:53:09;;;;;;;14.13;9.93;;;12.40;54.20;;;;;;5015739;28;20482;-80
2022/02/25 08:55:35;;;;;;;10.90;8.15;;;11.80;52.90;;;;;;5004512;28;20121;-80
2022/02/25 08:58:01;;;;;;;15.80;10.30;;;11.80;51.90;;;;;;5020767;28;20075;-78
2022/02/25 09:00:29;;;;;;;13.23;8.80;;;11.50;52.60;;;;;;5023903;28;20038;-80
2022/02/25 09:02:56;;;;;;;10.73;9.13;;;11.60;52.40;;;;;;4987599;28;20384;-80
2022/02/25 09:05:23;;;;;;;15.88;10.00;;;11.30;52.20;;;;;;5017173;28;20109;-80
2022/02/25 09:07:51;;;;;;;16.77;10.07;;;11.40;51.90;;;;;;5002036;28;20569;-80
2022/02/25 09:10:18;;;;;;;11.32;9.27;;;11.80;51.50;;;;;;5016795;28;20026;-80
2022/02/25 09:12:45;;;;;;;10.43;7.00;;;12.40;49.90;;;;;;5020187;28;20076;-80
2022/02/25 09:15:12;;;;;;;;;;;12.50;47.50;;;;;;5020933;28;20104;-80
2022/02/25 09:17:39;;;;;;;10.52;7.38;;;12.00;51.20;;;;;;5001646;28;19965;-79
2022/02/25 09:20:07;;;;;;;8.75;7.30;;;11.90;48.50;;;;;;5018141;28;20034;-80
2022/02/25 09:22:34;;;;;;;12.07;7.60;;;12.10;48.50;;;;;;5016192;28;20026;-77
2022/02/25 09:25:00;;;;;;;8.77;6.13;;;12.10;48.30;;;;;;4997537;28;20038;-78
2022/02/25 09:27:27;;;;;;;11.55;8.02;;;12.80;48.10;;;;;;5016113;28;20021;-77
2022/02/25 09:29:53;;;;;;;10.02;7.88;;;13.20;46.10;;;;;;4982720;28;20099;-79
2022/02/25 09:32:19;;;;;;;9.52;8.23;;;13.60;44.60;;;;;;5015317;28;20117;-80
2022/02/25 09:34:46;;;;;;;11.65;8.27;;;12.90;45.40;;;;;;5015449;28;20037;-83
2022/02/25 09:37:12;;;;;;;12.35;8.15;;;13.60;45.60;;;;;;4984920;28;20053;-78
2022/02/25 09:39:38;;;;;;;10.80;7.35;;;13.60;44.00;;;;;;5015434;28;20049;-81
2022/02/25 09:42:05;;;;;;;12.23;7.57;;;13.90;43.80;;;;;;5017078;28;20038;-79
2022/02/25 09:44:33;;;;;;;11.93;5.28;;;13.60;43.80;;;;;;5015492;28;20100;-78
2022/02/25 09:46:59;;;;;;;13.63;8.05;;;13.90;41.90;;;;;;5014664;28;20068;-77
2022/02/25 09:49:25;;;;;;;10.50;8.15;;;13.50;43.40;;;;;;5015992;28;20022;-78
2022/02/25 09:51:52;;;;;;;7.95;5.97;;;14.40;43.00;;;;;;5015337;28;20038;-79
2022/02/25 09:54:19;;;;;;;11.70;8.45;;;15.00;40.50;;;;;;5017754;28;20026;-80
2022/02/25 09:56:46;;;;;;;14.23;9.70;;;14.70;41.90;;;;;;5015876;28;20029;-78
2022/02/25 09:59:13;;;;;;;9.75;6.32;;;15.50;41.00;;;;;;5016295;28;20029;-81
2022/02/25 10:01:39;;;;;;;7.10;5.55;;;15.80;38.30;;;;;;5016549;28;20026;-80
2022/02/25 10:04:15;;;;;;;9.52;7.13;;;14.30;39.50;;;;;;4996128;28;20037;-83
2022/02/25 10:06:42;;;;;;;20.63;7.15;;;13.60;41.80;;;;;;4997178;28;20026;-80
2022/02/25 10:09:34;;;;;;;11.43;6.75;;;13.70;41.20;;;;;;5015665;28;20060;-80
2022/02/25 10:12:11;;;;;;;11.18;6.93;;;14.00;42.00;;;;;;5001513;28;20076;-80
2022/02/25 10:14:40;;;;;;;15.82;7.07;;;14.20;40.90;;;;;;5019369;28;20014;-78
2022/02/25 10:17:20;;;;;;;9.43;6.63;;;13.20;40.70;;;;;;5015649;28;20105;-81
2022/02/25 10:19:50;;;;;;;6.78;6.00;;;12.80;41.80;;;;;;5017155;28;20029;-79
2022/02/25 10:22:35;;;;;;;9.23;7.90;;;13.30;41.90;;;;;;5004143;28;20080;-77
2022/02/25 10:25:08;;;;;;;10.18;7.07;;;14.00;41.40;;;;;;5018413;28;20375;-80
2022/02/25 10:27:37;;;;;;;9.45;6.65;;;14.80;40.00;;;;;;5017185;28;20030;-80
2022/02/25 10:30:08;;;;;;;7.10;5.03;;;14.80;38.00;;;;;;5016917;28;20104;-81
2022/02/25 10:32:38;;;;;;;10.18;6.32;;;13.40;39.00;;;;;;5015883;28;20026;-79
2022/02/25 10:35:23;;;;;;;7.32;5.00;;;11.50;42.00;;;;;;5005149;28;20030;-80
2022/02/25 10:38:01;;;;;;;11.80;7.05;;;9.90;44.60;;;;;;4999908;28;20052;-79
2022/02/25 10:40:28;;;;;;;;;;;8.60;47.30;;;;;;5015113;28;20028;-81
2022/02/25 10:42:54;;;;;;;5.78;4.43;;;7.90;48.30;;;;;;5017257;28;19913;-79
2022/02/25 10:45:36;;;;;;;9.77;5.43;;;7.60;50.30;;;;;;5013965;28;20030;-78
2022/02/25 10:48:14;;;;;;;8.68;5.25;;;7.10;51.80;;;;;;5012444;28;20083;-79
2022/02/25 10:50:51;;;;;;;12.60;6.25;;;6.90;52.30;;;;;;4996161;28;20479;-78
2022/02/25 10:53:25;;;;;;;8.70;6.32;;;6.90;52.90;;;;;;5012816;28;20029;-80
2022/02/25 10:55:51;;;;;;;11.07;5.72;;;6.80;53.20;;;;;;5013956;28;20156;-77
2022/02/25 10:58:17;;;;;;;7.70;4.70;;;6.80;53.30;;;;;;4996439;28;20018;-78
2022/02/25 11:00:43;;;;;;;7.47;4.68;;;6.50;53.60;;;;;;4996397;28;20022;-78
2022/02/25 11:03:17;;;;;;;7.45;4.32;;;6.20;54.60;;;;;;4996440;28;20033;-77
2022/02/25 11:05:44;;;;;;;8.52;5.05;;;6.20;55.00;;;;;;5013475;28;20387;-79
2022/02/25 11:08:10;;;;;;;7.20;5.83;;;6.20;55.20;;;;;;4992375;28;20041;-77
2022/02/25 11:10:38;;;;;;;7.63;5.38;;;6.30;55.30;;;;;;4993994;28;20118;-79
2022/02/25 11:13:05;;;;;;;10.45;4.88;;;6.30;55.40;;;;;;4997247;28;20029;-79
2022/02/25 11:15:36;;;;;;;7.30;5.22;;;6.20;55.90;;;;;;4996201;28;20038;-80
2022/02/25 11:18:03;;;;;;;9.93;4.80;;;6.20;55.70;;;;;;4979410;28;20061;-78
2022/02/25 11:20:31;;;;;;;6.43;4.25;;;6.00;56.50;;;;;;4994733;28;20053;-79
2022/02/25 11:23:01;;;;;;;9.82;4.35;;;5.90;56.60;;;;;;4994454;28;20022;-77
2022/02/25 11:25:28;;;;;;;4.60;3.20;;;5.70;57.20;;;;;;5007454;28;20018;-77
2022/02/25 11:27:55;;;;;;;9.82;4.85;;;5.70;57.60;;;;;;5014362;28;20037;-80
2022/02/25 11:30:33;;;;;;;7.20;4.53;;;5.50;58.10;;;;;;4998017;28;20041;-82
2022/02/25 11:33:03;;;;;;;8.10;5.70;;;5.40;58.60;;;;;;4998263;28;20021;-77
2022/02/25 11:35:32;;;;;;;13.18;4.95;;;5.30;59.30;;;;;;5015586;28;20034;-78
2022/02/25 11:38:10;;;;;;;12.45;6.90;;;5.30;59.40;;;;;;5014942;28;20049;-81
2022/02/25 11:40:49;;;;;;;;;;;5.40;59.70;;;;;;5017294;28;20026;-79
2022/02/25 11:43:16;;;;;;;9.77;6.80;;;5.40;59.50;;;;;;5013950;28;19937;-81
2022/02/25 11:45:51;;;;;;;9.13;5.97;;;5.30;60.30;;;;;;5013436;28;20030;-77
2022/02/25 11:48:25;;;;;;;9.73;5.60;;;5.30;60.80;;;;;;5014691;28;20029;-78
2022/02/25 11:50:55;;;;;;;11.10;5.50;;;5.30;60.20;;;;;;5012914;28;20403;-79
2022/02/25 11:53:26;;;;;;;9.63;5.28;;;5.30;60.60;;;;;;4995212;28;20017;-77
2022/02/25 11:55:53;;;;;;;7.82;4.90;;;5.30;61.10;;;;;;4995252;28;20026;-78
2022/02/25 11:58:46;;;;;;;10.85;5.95;;;5.20;61.20;;;;;;4994947;28;20029;-78
2022/02/25 12:01:16;;;;;;;7.97;6.47;;;5.10;61.70;;;;;;4996219;28;20053;-81
2022/02/25 12:04:11;;;;;;;9.50;4.80;;;5.10;62.30;;;;;;4995929;28;20515;-79
2022/02/25 12:06:55;;;;;;;8.70;3.38;;;5.10;62.30;;;;;;5015470;28;20094;-79
2022/02/25 12:09:44;;;;;;;5.88;4.63;;;5.10;62.60;;;;;;5013848;28;20052;-78
2022/02/25 12:12:29;;;;;;;12.73;4.90;;;5.00;63.40;;;;;;4998226;28;20540;-77
2022/02/25 12:15:14;;;;;;;12.43;6.70;;;4.90;63.80;;;;;;5001084;28;20034;-78
2022/02/25 12:17:44;;;;;;;10.35;5.95;;;4.80;64.60;;;;;;5007471;28;20500;-80
2022/02/25 12:20:17;;;;;;;8.15;4.82;;;4.80;65.10;;;;;;4998649;28;20034;-78
2022/02/25 12:22:52;;;;;;;11.85;5.93;;;4.80;65.10;;;;;;4995984;28;20022;-79
2022/02/25 12:25:43;;;;;;;13.60;7.32;;;4.70;65.50;;;;;;4976113;28;20042;-81
2022/02/25 12:28:24;;;;;;;16.35;7.90;;;4.70;65.70;;;;;;4993955;28;20022;-79
2022/02/25 12:31:11;;;;;;;5.90;4.65;;;4.80;66.10;;;;;;4994026;28;20372;-78
2022/02/25 12:33:47;;;;;;;12.02;5.97;;;4.80;66.30;;;;;;5009497;28;20483;-78
2022/02/25 12:36:17;;;;;;;14.60;7.55;;;4.80;66.30;;;;;;4994753;28;20046;-79
2022/02/25 12:38:47;;;;;;;10.35;6.18;;;4.80;66.40;;;;;;5013327;28;20022;-79
2022/02/25 12:41:21;;;;;;;13.63;6.78;;;4.80;66.40;;;;;;4995091;28;20021;-78
2022/02/25 12:43:49;;;;;;;11.95;6.88;;;4.80;66.60;;;;;;5013785;28;20105;-79
2022/02/25 12:46:16;;;;;;;14.00;8.73;;;4.80;66.80;;;;;;4995207;28;20030;-78
2022/02/25 12:48:42;;;;;;;11.20;6.88;;;4.70;66.80;;;;;;5014274;28;20034;-78
2022/02/25 12:51:08;;;;;;;12.05;7.25;;;4.70;66.90;;;;;;5016905;28;20057;-78
2022/02/25 12:54:01;;;;;;;10.05;6.70;;;4.80;66.90;;;;;;5016547;28;20475;-79